createdAt,value
2018-06-30T00:01:26.305Z,89.80
2018-06-30T00:03:56.200Z,90.20
2018-06-30T00:06:26.119Z,90.20
2018-06-30T00:08:55.724Z,90.50
2018-06-30T00:11:24.635Z,90.40
2018-06-30T00:13:53.748Z,90.10
2018-06-30T00:16:22.464Z,90.10
2018-06-30T00:18:51.444Z,90.30
2018-06-30T00:21:20.193Z,90.30
2018-06-30T00:23:48.867Z,90.20
2018-06-30T00:26:18.161Z,90.60
2018-06-30T00:28:46.848Z,91.00
2018-06-30T00:31:16.141Z,91.20
2018-06-30T00:33:45.249Z,91.30
2018-06-30T00:36:13.955Z,91.40
2018-06-30T00:38:42.968Z,91.40
2018-06-30T00:41:11.615Z,91.60
2018-06-30T00:43:40.336Z,92.10
2018-06-30T00:46:09.137Z,92.20
2018-06-30T00:48:38.381Z,92.20
2018-06-30T00:51:07.367Z,92.60
2018-06-30T00:53:36.001Z,93.00
2018-06-30T00:56:04.915Z,93.20
2018-06-30T00:58:33.782Z,93.50
2018-06-30T01:01:02.444Z,93.40
2018-06-30T01:03:31.460Z,93.30
2018-06-30T01:06:00.129Z,93.60
2018-06-30T01:08:28.797Z,93.40
2018-06-30T01:10:57.676Z,93.80
2018-06-30T01:13:26.929Z,93.70
2018-06-30T01:15:55.963Z,93.80
2018-06-30T01:18:24.608Z,94.10
2018-06-30T01:20:53.605Z,94.30
2018-06-30T01:23:22.312Z,94.40
2018-06-30T01:25:51.292Z,94.50
2018-06-30T01:28:19.946Z,94.80
2018-06-30T01:30:48.592Z,94.70
2018-06-30T01:33:17.329Z,95.00
2018-06-30T01:35:46.372Z,94.80
2018-06-30T01:38:15.108Z,95.00
2018-06-30T01:40:44.275Z,95.10
2018-06-30T01:43:13.491Z,95.20
2018-06-30T01:45:42.192Z,95.00
2018-06-30T01:48:10.866Z,95.30
2018-06-30T01:50:39.913Z,95.30
2018-06-30T01:53:08.693Z,95.50
2018-06-30T01:55:37.839Z,95.60
2018-06-30T01:58:07.634Z,95.50
2018-06-30T02:00:36.393Z,95.90
2018-06-30T02:03:05.357Z,96.20
2018-06-30T02:05:34.023Z,96.40
2018-06-30T02:08:02.655Z,96.50
2018-06-30T02:10:31.377Z,96.40
2018-06-30T02:13:00.102Z,96.60
2018-06-30T02:15:28.977Z,96.90
2018-06-30T02:17:57.643Z,96.60
2018-06-30T02:20:26.225Z,96.70
2018-06-30T02:22:55.173Z,96.70
2018-06-30T02:25:23.898Z,96.80
2018-06-30T02:27:52.539Z,96.80
2018-06-30T02:30:21.426Z,96.90
2018-06-30T02:32:50.391Z,97.00
2018-06-30T02:35:19.058Z,97.10
2018-06-30T02:37:48.012Z,97.20
2018-06-30T02:40:16.717Z,97.10
2018-06-30T02:42:45.976Z,97.20
2018-06-30T02:45:14.720Z,97.20
2018-06-30T02:47:43.464Z,97.20
2018-06-30T02:50:12.497Z,97.40
2018-06-30T02:52:41.173Z,97.40
2018-06-30T02:55:09.762Z,97.40
2018-06-30T02:57:38.320Z,97.60
2018-06-30T03:00:06.877Z,97.60
2018-06-30T03:02:35.651Z,97.50
2018-06-30T03:05:04.726Z,97.60
2018-06-30T03:07:33.366Z,97.60
2018-06-30T03:10:02.011Z,97.50
2018-06-30T03:12:30.740Z,97.50
2018-06-30T03:14:59.392Z,97.70
2018-06-30T03:17:28.085Z,97.80
2018-06-30T03:19:56.821Z,98.00
2018-06-30T03:22:25.525Z,98.40
2018-06-30T03:24:54.035Z,98.40
2018-06-30T03:27:22.635Z,98.60
2018-06-30T03:29:51.255Z,99.20
2018-06-30T03:32:20.205Z,99.00
2018-06-30T03:34:49.196Z,99.30
2018-06-30T03:37:17.881Z,99.20
2018-06-30T03:39:46.828Z,99.20
2018-06-30T03:42:15.825Z,99.30
2018-06-30T03:44:44.451Z,99.50
2018-06-30T03:47:13.307Z,99.50
2018-06-30T03:49:42.008Z,99.60
2018-06-30T03:52:10.725Z,99.60
2018-06-30T03:54:39.469Z,99.50
2018-06-30T03:57:08.169Z,99.50
2018-06-30T03:59:36.808Z,99.50
2018-06-30T04:02:05.495Z,99.40
2018-06-30T04:04:34.028Z,99.50
2018-06-30T04:07:02.764Z,99.60
2018-06-30T04:09:31.441Z,99.40
2018-06-30T04:12:00.544Z,99.40
2018-06-30T04:14:29.909Z,99.40
2018-06-30T04:16:58.612Z,99.40
2018-06-30T04:19:27.910Z,99.30
2018-06-30T04:21:56.673Z,99.20
2018-06-30T04:24:25.427Z,99.40
2018-06-30T04:26:54.036Z,99.40
2018-06-30T04:29:22.668Z,99.20
2018-06-30T04:31:51.317Z,99.50
2018-06-30T04:34:20.269Z,99.00
2018-06-30T04:36:48.920Z,99.10
2018-06-30T04:39:17.582Z,98.90
2018-06-30T04:41:46.320Z,98.90
2018-06-30T04:44:15.940Z,98.60
2018-06-30T04:46:45.939Z,98.80
2018-06-30T04:49:14.594Z,98.80
2018-06-30T04:51:43.464Z,98.90
2018-06-30T04:54:13.244Z,98.80
2018-06-30T04:56:42.457Z,98.90
2018-06-30T04:59:11.807Z,98.80
2018-06-30T05:01:40.666Z,98.60
2018-06-30T05:04:09.564Z,98.60
2018-06-30T05:06:38.224Z,98.80
2018-06-30T05:09:08.324Z,98.60
2018-06-30T05:11:37.392Z,98.60
2018-06-30T05:14:06.442Z,98.50
2018-06-30T05:16:35.229Z,98.40
2018-06-30T05:19:04.006Z,97.90
2018-06-30T05:21:33.245Z,97.70
2018-06-30T05:24:02.406Z,97.60
2018-06-30T05:26:31.327Z,97.60
2018-06-30T05:29:00.094Z,97.20
2018-06-30T05:31:29.161Z,97.30
2018-06-30T05:33:58.177Z,96.90
2018-06-30T05:36:27.013Z,96.80
2018-06-30T05:38:55.824Z,96.80
2018-06-30T05:41:24.469Z,96.80
2018-06-30T05:43:53.617Z,96.70
2018-06-30T05:46:22.617Z,96.40
2018-06-30T05:48:51.400Z,96.00
2018-06-30T05:51:20.291Z,95.90
2018-06-30T05:53:49.194Z,95.80
2018-06-30T05:56:18.213Z,95.10
2018-06-30T05:58:47.137Z,95.00
2018-06-30T06:01:16.840Z,94.90
2018-06-30T06:03:45.994Z,94.00
2018-06-30T06:06:14.720Z,93.90
2018-06-30T06:08:43.560Z,94.10
2018-06-30T06:11:12.944Z,93.40
2018-06-30T06:13:41.765Z,93.30
2018-06-30T06:16:10.679Z,93.10
2018-06-30T06:18:39.381Z,92.90
2018-06-30T06:21:08.134Z,92.30
2018-06-30T06:23:36.877Z,91.20
2018-06-30T06:26:06.069Z,90.70
2018-06-30T06:28:34.962Z,90.30
2018-06-30T06:31:03.845Z,89.30
2018-06-30T06:33:32.860Z,86.80
2018-06-30T06:36:01.806Z,86.60
2018-06-30T06:38:30.690Z,86.10
2018-06-30T06:40:59.241Z,86.80
2018-06-30T06:43:28.175Z,85.10
2018-06-30T06:45:57.200Z,86.00
2018-06-30T06:48:25.962Z,84.00
2018-06-30T06:50:54.693Z,84.70
2018-06-30T06:53:23.451Z,81.70
2018-06-30T06:55:52.156Z,80.80
2018-06-30T07:00:50.460Z,80.10
2018-06-30T07:03:19.153Z,78.60
2018-06-30T07:05:48.201Z,79.00
2018-06-30T07:08:16.901Z,77.20
2018-06-30T07:10:45.759Z,75.90
2018-06-30T07:13:14.394Z,75.80
2018-06-30T07:15:43.369Z,75.00
2018-06-30T07:18:12.072Z,74.70
2018-06-30T07:20:41.056Z,74.30
2018-06-30T07:23:10.085Z,74.10
2018-06-30T07:25:38.766Z,74.80
2018-06-30T07:28:08.301Z,73.20
2018-06-30T07:30:37.179Z,72.50
2018-06-30T07:50:28.223Z,68.60
2018-06-30T07:52:57.357Z,69.00
2018-06-30T07:57:56.189Z,69.40
2018-06-30T08:00:26.209Z,66.80
2018-06-30T08:02:56.104Z,66.70
2018-06-30T08:05:24.903Z,67.60
2018-06-30T08:07:54.062Z,65.80
2018-06-30T08:10:22.683Z,63.70
2018-06-30T08:12:51.441Z,64.70
2018-06-30T08:15:20.216Z,63.20
2018-06-30T08:17:50.104Z,64.40
2018-06-30T08:20:18.849Z,64.70
2018-06-30T08:22:47.560Z,63.90
2018-06-30T08:25:16.204Z,61.90
2018-06-30T08:27:45.520Z,62.10
2018-06-30T08:30:15.445Z,62.00
2018-06-30T08:32:44.120Z,62.80
2018-06-30T08:35:13.185Z,60.90
2018-06-30T08:37:41.898Z,61.40
2018-06-30T08:40:10.848Z,62.30
2018-06-30T08:45:54.091Z,61.70
2018-06-30T13:45:42.542Z,20.80
2018-06-30T15:27:17.958Z,19.60
2018-06-30T15:29:47.661Z,17.90
2018-06-30T15:32:17.262Z,17.10
2018-06-30T15:37:15.864Z,17.00
2018-06-30T15:52:07.447Z,17.90
2018-06-30T19:18:00.741Z,18.10
2018-06-30T19:20:30.252Z,39.60
2018-06-30T19:23:00.186Z,39.80
2018-06-30T19:25:29.003Z,39.50
2018-06-30T19:27:57.645Z,37.60
2018-06-30T19:30:27.498Z,37.00
2018-06-30T19:32:57.015Z,38.50
2018-06-30T19:35:27.655Z,39.10
2018-06-30T19:37:56.748Z,41.00
2018-06-30T19:40:29.563Z,39.10
2018-06-30T19:42:58.693Z,39.20
2018-06-30T19:45:27.440Z,41.40
2018-06-30T19:47:57.435Z,40.30
2018-06-30T19:52:55.366Z,39.50
2018-06-30T19:55:24.364Z,40.00
2018-06-30T19:57:54.859Z,40.80
2018-06-30T20:00:24.069Z,39.90
2018-06-30T20:02:54.389Z,41.40
2018-06-30T20:05:23.438Z,40.10
2018-06-30T20:07:54.057Z,39.20
2018-06-30T20:10:24.410Z,39.60
2018-06-30T20:12:53.551Z,39.90
2018-06-30T20:15:22.391Z,40.80
2018-06-30T20:17:51.266Z,41.90
2018-06-30T20:20:20.209Z,40.00
2018-06-30T20:22:48.894Z,40.50
2018-06-30T20:25:19.335Z,40.80
2018-06-30T20:27:48.676Z,42.90
2018-06-30T20:30:17.818Z,42.30
2018-06-30T20:32:47.001Z,41.60
2018-06-30T20:35:15.844Z,41.50
2018-06-30T20:37:44.764Z,41.30
2018-06-30T20:40:13.542Z,41.70
2018-06-30T20:42:42.895Z,42.20
2018-06-30T20:45:11.770Z,42.90
2018-06-30T20:47:41.789Z,42.70
2018-06-30T20:50:10.697Z,40.80
2018-06-30T20:52:39.723Z,42.20
2018-06-30T20:55:08.390Z,40.60
2018-06-30T20:57:37.712Z,43.20
2018-06-30T21:00:06.320Z,42.20
2018-06-30T21:02:35.642Z,43.00
2018-06-30T21:05:04.748Z,42.60
2018-06-30T21:07:33.417Z,42.50
2018-06-30T21:10:02.294Z,41.80
2018-06-30T21:12:31.252Z,43.10
2018-06-30T21:15:00.491Z,42.90
2018-06-30T21:17:29.321Z,43.80
2018-06-30T21:19:58.293Z,44.10
2018-06-30T21:22:27.212Z,44.10
2018-06-30T21:24:56.082Z,43.50
2018-06-30T21:27:24.807Z,42.30
2018-06-30T21:29:53.521Z,43.10
2018-06-30T21:32:22.764Z,45.60
2018-06-30T21:34:51.441Z,46.70
2018-06-30T21:37:20.620Z,46.30
2018-06-30T21:39:49.397Z,44.50
2018-06-30T21:42:18.660Z,44.20
2018-06-30T21:44:47.405Z,44.80
2018-06-30T21:47:16.264Z,44.00
2018-06-30T21:49:46.351Z,44.60
2018-06-30T21:52:15.108Z,45.50
2018-06-30T21:54:44.042Z,45.00
2018-06-30T21:57:13.161Z,45.30
2018-06-30T21:59:42.231Z,45.20
2018-06-30T22:02:11.461Z,46.20
2018-06-30T22:17:02.242Z,44.80
2018-06-30T22:19:31.014Z,46.40
2018-06-30T22:22:00.034Z,47.10
2018-06-30T22:24:28.993Z,47.00
2018-06-30T22:26:57.705Z,47.30
2018-06-30T22:29:26.609Z,48.80
2018-06-30T22:44:22.761Z,48.90
2018-06-30T22:46:53.365Z,50.60
2018-06-30T22:49:21.972Z,51.60
2018-06-30T22:51:50.824Z,51.50
2018-06-30T22:54:20.112Z,51.50
2018-06-30T22:56:48.802Z,51.30
2018-06-30T22:59:17.482Z,52.20
2018-06-30T23:01:46.307Z,51.60
2018-06-30T23:04:15.109Z,51.80
2018-06-30T23:06:44.228Z,52.30
2018-06-30T23:31:30.941Z,56.10
2018-06-30T23:33:59.647Z,55.40
2018-06-30T23:36:28.461Z,55.70
2018-06-30T23:38:57.235Z,57.10
2018-06-30T23:41:25.965Z,57.00
2018-06-30T23:43:55.112Z,57.90
2018-06-30T23:46:24.013Z,58.00
2018-06-30T23:48:53.084Z,57.40
2018-06-30T23:51:21.749Z,57.10
2018-06-30T23:53:50.865Z,57.80
2018-06-30T23:58:48.395Z,57.40
